Time;durP1;ratioP1;P1;durP2;ratioP2;P2;SDS_P1;SDS_P2;PMS_P1;PMS_P2;Temp;Humidity;BMP_temperature;BMP_pressure;BME280_temperature;BME280_humidity;BME280_pressure;Samples;Min_cycle;Max_cycle;Signal;HPM_P1;HPM_P2
2022/08/09 00:01:26;;;;;;;5.97;4.13;;;16.00;99.90;;;;;;5033223;28;20042;-76
2022/08/09 00:03:52;;;;;;;8.48;4.25;;;16.00;99.90;;;;;;5000731;28;20099;-76
2022/08/09 00:06:18;;;;;;;5.05;4.05;;;16.00;99.90;;;;;;5001238;28;20041;-76
2022/08/09 00:08:47;;;;;;;6.88;4.35;;;15.90;99.90;;;;;;5000616;28;20457;-76
2022/08/09 00:11:14;;;;;;;7.10;4.10;;;16.00;99.90;;;;;;5001350;28;20049;-76
2022/08/09 00:13:40;;;;;;;5.88;4.13;;;15.90;99.90;;;;;;5033533;28;20049;-76
2022/08/09 00:16:05;;;;;;;6.18;4.28;;;16.00;99.90;;;;;;5033590;28;20417;-76
2022/08/09 00:18:33;;;;;;;6.55;3.80;;;15.90;99.90;;;;;;5001343;28;20072;-83
2022/08/09 00:20:59;;;;;;;7.35;4.88;;;15.90;99.90;;;;;;5053811;28;20046;-84
2022/08/09 00:23:24;;;;;;;5.32;4.80;;;15.90;99.90;;;;;;5040782;28;20037;-83
2022/08/09 00:25:50;;;;;;;7.15;5.20;;;15.80;99.90;;;;;;5058298;28;20059;-82
2022/08/09 00:28:16;;;;;;;5.95;4.78;;;15.80;99.90;;;;;;5027770;28;20069;-83
2022/08/09 00:30:41;;;;;;;7.22;4.75;;;15.80;99.90;;;;;;5017353;28;20045;-83
2022/08/09 00:33:07;;;;;;;7.07;5.00;;;15.80;99.90;;;;;;5035871;28;20454;-83
2022/08/09 00:35:33;;;;;;;5.95;5.15;;;15.70;99.90;;;;;;5001882;28;20572;-84
2022/08/09 00:37:58;;;;;;;6.25;5.43;;;15.70;99.90;;;;;;5018802;28;20521;-84
2022/08/09 00:40:24;;;;;;;7.72;5.80;;;15.70;99.90;;;;;;5034124;28;20041;-83
2022/08/09 00:42:50;;;;;;;7.63;5.60;;;15.60;99.90;;;;;;5018274;28;20054;-83
2022/08/09 00:45:16;;;;;;;6.72;5.43;;;15.60;99.90;;;;;;5018133;28;20128;-83
2022/08/09 00:47:41;;;;;;;9.25;6.00;;;15.60;99.90;;;;;;5017886;28;20120;-83
2022/08/09 00:50:07;;;;;;;10.45;6.63;;;15.60;99.90;;;;;;5033393;28;20037;-84
2022/08/09 00:52:33;;;;;;;7.85;5.82;;;15.50;99.90;;;;;;5017564;28;20053;-84
2022/08/09 00:55:00;;;;;;;9.30;5.95;;;15.50;99.90;;;;;;5017897;28;20041;-83
2022/08/09 00:57:26;;;;;;;8.57;6.35;;;15.40;99.90;;;;;;5016312;28;20072;-84
2022/08/09 00:59:52;;;;;;;10.88;6.65;;;15.40;99.90;;;;;;5034930;28;20049;-83
2022/08/09 01:02:21;;;;;;;7.93;6.28;;;15.30;99.90;;;;;;5033381;28;20095;-83
2022/08/09 01:04:52;;;;;;;10.55;7.28;;;15.30;99.90;;;;;;5032511;28;20575;-83
2022/08/09 01:07:23;;;;;;;9.63;7.70;;;15.20;99.90;;;;;;5016505;28;20079;-83
2022/08/09 01:10:04;;;;;;;8.80;6.90;;;15.20;99.90;;;;;;5017748;28;20045;-84
2022/08/09 01:12:42;;;;;;;9.38;6.53;;;15.20;99.90;;;;;;5017642;28;20037;-84
2022/08/09 01:15:11;;;;;;;8.55;6.35;;;15.10;99.90;;;;;;5017204;28;20489;-83
2022/08/09 01:17:49;;;;;;;8.95;6.20;;;15.10;99.90;;;;;;5033892;28;20052;-83
2022/08/09 01:20:35;;;;;;;9.70;6.90;;;15.10;99.90;;;;;;5032908;28;20071;-84
2022/08/09 01:23:07;;;;;;;9.90;6.43;;;15.10;99.90;;;;;;5032702;28;20571;-83
2022/08/09 01:25:43;;;;;;;9.85;6.10;;;15.00;99.90;;;;;;5033284;28;20090;-83
2022/08/09 01:28:10;;;;;;;6.88;6.18;;;15.00;99.90;;;;;;5017024;28;20037;-84
2022/08/09 01:30:37;;;;;;;10.52;6.15;;;15.00;99.90;;;;;;5033047;28;20041;-84
2022/08/09 01:33:07;;;;;;;7.30;5.57;;;14.90;99.90;;;;;;5016771;28;20067;-84
2022/08/09 01:35:45;;;;;;;10.02;6.47;;;14.90;99.90;;;;;;5034929;28;20060;-84
2022/08/09 01:38:24;;;;;;;8.50;6.35;;;14.90;99.90;;;;;;5037573;28;20041;-84
2022/08/09 01:40:57;;;;;;;6.80;5.35;;;14.90;99.90;;;;;;5037143;28;20049;-84
2022/08/09 01:43:23;;;;;;;9.52;6.65;;;14.90;99.90;;;;;;5037629;28;20057;-84
2022/08/09 01:45:49;;;;;;;7.65;5.88;;;14.90;99.90;;;;;;5020562;28;20044;-83
2022/08/09 01:48:17;;;;;;;7.10;5.60;;;14.90;99.90;;;;;;5021022;28;20030;-84
2022/08/09 01:50:49;;;;;;;8.18;5.78;;;14.90;99.90;;;;;;5004635;28;20052;-84
2022/08/09 01:53:16;;;;;;;8.65;5.70;;;14.90;99.90;;;;;;5020146;28;20064;-84
2022/08/09 01:55:43;;;;;;;8.75;6.15;;;14.80;99.90;;;;;;5020397;28;20041;-84
2022/08/09 01:58:09;;;;;;;7.75;5.78;;;14.90;99.90;;;;;;5036759;28;20079;-84
2022/08/09 02:00:35;;;;;;;9.95;5.80;;;14.90;99.90;;;;;;5020398;28;20387;-84
2022/08/09 02:03:02;;;;;;;6.90;5.60;;;14.90;99.90;;;;;;5020173;28;20044;-83
2022/08/09 02:05:31;;;;;;;7.13;5.78;;;14.90;99.90;;;;;;5020006;28;20042;-83
2022/08/09 02:08:01;;;;;;;7.45;5.80;;;14.90;99.90;;;;;;5019561;28;20048;-84
2022/08/09 02:10:34;;;;;;;11.43;6.13;;;14.90;99.90;;;;;;5019453;28;20099;-84
2022/08/09 02:13:03;;;;;;;10.00;6.15;;;14.80;99.90;;;;;;5036186;28;20033;-84
2022/08/09 02:15:37;;;;;;;7.43;5.80;;;14.80;99.90;;;;;;5019476;28;20041;-76
2022/08/09 02:18:04;;;;;;;7.63;5.90;;;14.80;99.90;;;;;;5035445;28;20430;-76
2022/08/09 02:20:32;;;;;;;10.35;6.78;;;14.70;99.90;;;;;;5019053;28;20045;-76
2022/08/09 02:23:15;;;;;;;6.25;5.65;;;14.70;99.90;;;;;;5034928;28;20094;-76
2022/08/09 02:25:42;;;;;;;9.60;6.90;;;14.60;99.90;;;;;;5019471;28;20128;-76
2022/08/09 02:28:18;;;;;;;7.22;5.78;;;14.60;99.90;;;;;;5035872;28;20037;-76
2022/08/09 02:30:49;;;;;;;8.10;6.20;;;14.50;99.90;;;;;;5019126;28;20034;-76
2022/08/09 02:33:19;;;;;;;6.72;6.03;;;14.50;99.90;;;;;;5035041;28;20049;-76
2022/08/09 02:35:47;;;;;;;8.60;6.68;;;14.50;99.90;;;;;;5035209;28;20064;-76
2022/08/09 02:38:17;;;;;;;6.90;5.85;;;14.50;99.90;;;;;;5018377;28;20048;-76
2022/08/09 02:40:44;;;;;;;7.25;6.20;;;14.50;99.90;;;;;;5035437;28;20081;-76
2022/08/09 02:43:11;;;;;;;8.45;5.97;;;14.50;99.90;;;;;;5018380;28;20510;-76
2022/08/09 02:45:41;;;;;;;7.20;5.90;;;14.50;99.90;;;;;;5018014;28;20052;-76
2022/08/09 02:48:10;;;;;;;7.72;6.70;;;14.50;99.90;;;;;;5034653;28;20123;-76
2022/08/09 02:50:40;;;;;;;8.80;5.93;;;14.40;99.90;;;;;;5034629;28;20047;-76
2022/08/09 02:53:18;;;;;;;7.25;5.72;;;14.40;99.90;;;;;;5018542;28;20041;-76
2022/08/09 02:55:47;;;;;;;7.03;5.88;;;14.40;99.90;;;;;;5034551;28;20038;-76
2022/08/09 02:58:15;;;;;;;7.88;5.97;;;14.30;99.90;;;;;;5018385;28;20033;-76
2022/08/09 03:00:43;;;;;;;8.10;5.32;;;14.30;99.90;;;;;;5002366;28;20153;-76
2022/08/09 03:03:09;;;;;;;7.65;5.85;;;14.30;99.90;;;;;;5034895;28;20037;-76
2022/08/09 03:05:36;;;;;;;6.03;5.38;;;14.30;99.90;;;;;;5019104;28;20037;-76
2022/08/09 03:08:04;;;;;;;11.02;6.25;;;14.20;99.90;;;;;;5018705;28;20037;-76
2022/08/09 03:10:31;;;;;;;9.00;5.75;;;14.20;99.90;;;;;;5035429;28;20053;-76
2022/08/09 03:12:59;;;;;;;8.30;5.63;;;14.20;99.90;;;;;;5034943;28;20504;-76
2022/08/09 03:15:25;;;;;;;7.15;6.30;;;14.10;99.90;;;;;;5018213;28;20537;-76
2022/08/09 03:17:52;;;;;;;8.45;6.15;;;14.10;99.90;;;;;;5017899;28;20493;-76
2022/08/09 03:20:19;;;;;;;7.78;6.43;;;14.10;99.90;;;;;;5018056;28;20489;-76
2022/08/09 03:22:46;;;;;;;6.55;5.47;;;14.10;99.90;;;;;;5018609;28;20045;-76
2022/08/09 03:25:13;;;;;;;7.43;6.05;;;14.10;99.90;;;;;;5034751;28;20042;-76
2022/08/09 03:27:46;;;;;;;6.82;5.88;;;14.10;99.90;;;;;;5034939;28;20049;-76
2022/08/09 03:30:13;;;;;;;7.43;5.93;;;14.00;99.90;;;;;;5035091;28;20041;-76
2022/08/09 03:32:39;;;;;;;8.38;6.20;;;13.90;99.90;;;;;;4986238;28;20490;-76
2022/08/09 03:35:06;;;;;;;7.88;6.13;;;13.90;99.90;;;;;;5035306;28;20037;-76
2022/08/09 03:37:32;;;;;;;9.35;6.28;;;13.90;99.90;;;;;;5018866;28;20175;-76
2022/08/09 03:39:58;;;;;;;8.18;6.57;;;13.90;99.90;;;;;;5018950;28;20501;-76
2022/08/09 03:42:23;;;;;;;12.63;7.15;;;13.90;99.90;;;;;;5001939;28;20049;-76
2022/08/09 03:44:49;;;;;;;8.65;6.55;;;13.80;99.90;;;;;;5034374;28;20124;-76
2022/08/09 03:47:15;;;;;;;8.70;7.05;;;13.90;99.90;;;;;;5017788;28;20037;-76
2022/08/09 03:49:41;;;;;;;9.10;6.60;;;13.80;99.90;;;;;;5017875;28;20397;-76
2022/08/09 03:52:08;;;;;;;9.27;7.28;;;13.80;99.90;;;;;;5018271;28;20049;-76
2022/08/09 03:54:36;;;;;;;10.23;8.32;;;13.80;99.90;;;;;;5034091;28;20577;-76
2022/08/09 03:57:10;;;;;;;10.77;8.88;;;13.70;99.90;;;;;;5016585;28;20049;-76
2022/08/09 03:59:36;;;;;;;11.55;8.10;;;13.70;99.90;;;;;;5016716;28;20037;-76
2022/08/09 04:02:03;;;;;;;11.45;7.47;;;13.70;99.90;;;;;;4985495;28;20045;-76
2022/08/09 04:04:30;;;;;;;9.43;6.40;;;13.70;99.90;;;;;;5033732;28;20049;-76
2022/08/09 04:06:56;;;;;;;12.10;6.25;;;13.60;99.90;;;;;;5033884;28;20040;-76
2022/08/09 04:09:23;;;;;;;7.72;6.53;;;13.70;99.90;;;;;;5033912;28;20042;-76
2022/08/09 04:11:49;;;;;;;8.10;5.88;;;13.70;99.90;;;;;;5017520;28;20044;-76
2022/08/09 04:14:16;;;;;;;9.23;6.35;;;13.70;99.90;;;;;;5017010;28;20046;-76
2022/08/09 04:16:41;;;;;;;7.70;5.97;;;13.70;99.90;;;;;;5016508;28;20052;-76
2022/08/09 04:19:07;;;;;;;7.80;5.50;;;13.70;99.90;;;;;;5017269;28;20041;-76
2022/08/09 04:21:33;;;;;;;6.70;5.18;;;13.70;99.90;;;;;;5017945;28;20440;-76
2022/08/09 04:23:58;;;;;;;7.07;5.05;;;13.70;99.90;;;;;;4984733;28;20398;-76
2022/08/09 04:26:24;;;;;;;5.28;4.25;;;13.60;99.90;;;;;;5000865;28;20069;-76
2022/08/09 04:28:50;;;;;;;9.25;6.55;;;13.70;99.90;;;;;;5033926;28;20037;-76
2022/08/09 04:31:16;;;;;;;7.15;5.50;;;13.70;99.90;;;;;;5018019;28;20052;-85
2022/08/09 04:33:42;;;;;;;8.38;6.50;;;13.60;99.90;;;;;;5017809;28;20120;-84
2022/08/09 04:36:07;;;;;;;7.38;5.70;;;13.60;99.90;;;;;;5032964;28;20076;-84
2022/08/09 04:38:33;;;;;;;9.88;6.82;;;13.60;99.90;;;;;;5034009;28;20100;-84
2022/08/09 04:40:59;;;;;;;6.60;5.82;;;13.60;99.90;;;;;;5017475;28;20425;-84
2022/08/09 04:43:24;;;;;;;7.35;5.43;;;13.70;99.90;;;;;;5001625;28;20053;-84
2022/08/09 04:45:51;;;;;;;7.72;6.15;;;13.60;99.90;;;;;;5035063;28;20076;-84
2022/08/09 04:48:17;;;;;;;7.93;6.35;;;13.70;99.90;;;;;;5034002;28;20547;-84
2022/08/09 04:50:43;;;;;;;7.57;6.25;;;13.70;99.90;;;;;;5033468;28;20448;-84
2022/08/09 04:53:10;;;;;;;9.60;7.05;;;13.60;99.90;;;;;;5017965;28;20100;-84
2022/08/09 04:55:39;;;;;;;10.75;6.80;;;13.70;99.90;;;;;;5033989;28;20045;-84
2022/08/09 04:58:06;;;;;;;9.20;6.78;;;13.70;99.90;;;;;;5018789;28;20094;-84
2022/08/09 05:00:33;;;;;;;8.00;6.90;;;13.60;99.90;;;;;;5033748;28;20045;-84
2022/08/09 05:03:01;;;;;;;11.82;7.05;;;13.60;99.90;;;;;;5033504;28;20049;-84
2022/08/09 05:05:27;;;;;;;10.48;6.65;;;13.70;99.90;;;;;;5033176;28;20099;-84
2022/08/09 05:07:53;;;;;;;8.70;7.00;;;13.60;99.90;;;;;;5033396;28;20120;-84
2022/08/09 05:10:19;;;;;;;11.15;7.38;;;13.70;99.90;;;;;;5032883;28;20037;-84
2022/08/09 05:12:44;;;;;;;10.38;7.70;;;13.70;99.90;;;;;;5017141;28;20034;-84
2022/08/09 05:15:10;;;;;;;9.88;7.53;;;13.70;99.90;;;;;;5000602;28;20041;-84
2022/08/09 05:17:36;;;;;;;10.25;7.45;;;13.70;99.90;;;;;;5016899;28;20132;-84
2022/08/09 05:20:02;;;;;;;9.55;7.15;;;13.70;99.90;;;;;;5016863;28;20053;-84
2022/08/09 05:22:28;;;;;;;10.80;7.68;;;13.70;99.90;;;;;;5016893;28;20450;-83
2022/08/09 05:24:53;;;;;;;11.18;7.57;;;13.70;99.90;;;;;;5016268;28;20133;-84
2022/08/09 05:27:19;;;;;;;11.38;7.28;;;13.70;99.90;;;;;;5016541;28;20478;-84
2022/08/09 05:29:45;;;;;;;10.65;7.72;;;13.80;99.90;;;;;;5032965;28;20038;-84
2022/08/09 05:32:10;;;;;;;8.82;7.55;;;13.90;99.90;;;;;;5016902;28;20046;-84
2022/08/09 05:34:36;;;;;;;8.40;6.72;;;13.90;99.90;;;;;;5016922;28;20045;-84
2022/08/09 05:37:05;;;;;;;9.55;7.10;;;13.90;99.90;;;;;;5000198;28;20397;-84
2022/08/09 05:39:30;;;;;;;11.93;8.27;;;14.00;99.90;;;;;;5032748;28;20049;-84
2022/08/09 05:41:57;;;;;;;9.32;7.60;;;14.00;99.90;;;;;;5015614;28;20053;-84
2022/08/09 05:44:23;;;;;;;9.57;6.30;;;14.10;99.90;;;;;;4999954;28;20053;-84
2022/08/09 05:46:49;;;;;;;8.65;6.60;;;14.10;99.90;;;;;;5032936;28;20041;-84
2022/08/09 05:49:14;;;;;;;9.32;6.13;;;14.20;99.90;;;;;;5032379;28;20496;-84
2022/08/09 05:51:40;;;;;;;9.25;7.10;;;14.30;99.90;;;;;;5016240;28;20103;-85
2022/08/09 05:54:06;;;;;;;9.25;6.88;;;14.30;99.90;;;;;;5033313;28;20049;-84
2022/08/09 05:56:31;;;;;;;8.80;6.38;;;14.40;99.90;;;;;;5016370;28;20574;-84
2022/08/09 05:58:57;;;;;;;8.48;6.13;;;14.40;99.90;;;;;;5016637;28;20056;-84
2022/08/09 06:01:24;;;;;;;10.63;6.03;;;14.50;99.90;;;;;;5033014;28;20168;-84
2022/08/09 06:03:50;;;;;;;7.72;5.90;;;14.60;99.90;;;;;;5016728;28;20405;-84
2022/08/09 06:06:16;;;;;;;8.82;6.15;;;14.60;99.90;;;;;;5033222;28;20096;-84
2022/08/09 06:08:42;;;;;;;9.75;6.85;;;14.70;99.90;;;;;;5043154;28;20037;-84
2022/08/09 06:11:08;;;;;;;8.93;6.50;;;14.80;99.90;;;;;;5053222;28;20041;-82
2022/08/09 06:13:34;;;;;;;9.93;6.22;;;14.90;99.90;;;;;;5053661;28;20042;-83
2022/08/09 06:16:03;;;;;;;7.93;5.80;;;15.00;99.90;;;;;;5049704;28;20124;-84
2022/08/09 06:18:28;;;;;;;9.55;6.50;;;15.00;99.90;;;;;;5001129;28;20033;-84
2022/08/09 06:20:55;;;;;;;9.35;6.15;;;15.10;99.90;;;;;;5001859;28;20037;-84
2022/08/09 06:23:22;;;;;;;8.38;6.05;;;15.20;99.90;;;;;;5020469;28;20462;-84
2022/08/09 06:25:48;;;;;;;7.53;6.05;;;15.30;99.90;;;;;;5036427;28;20657;-84
2022/08/09 06:28:15;;;;;;;8.27;5.57;;;15.30;99.90;;;;;;5036724;28;20045;-84
2022/08/09 06:30:41;;;;;;;8.32;6.05;;;15.40;99.90;;;;;;5019589;28;20040;-83
2022/08/09 06:33:07;;;;;;;7.70;5.72;;;15.50;99.90;;;;;;5020234;28;20118;-83
2022/08/09 06:35:34;;;;;;;8.40;5.97;;;15.60;99.90;;;;;;5036081;28;20052;-84
2022/08/09 06:37:59;;;;;;;6.30;5.63;;;15.60;99.90;;;;;;5036078;28;20045;-83
2022/08/09 06:40:26;;;;;;;8.55;5.75;;;15.80;99.90;;;;;;5036032;28;20052;-84
2022/08/09 06:42:51;;;;;;;7.38;5.53;;;15.90;99.90;;;;;;5035680;28;20564;-84
2022/08/09 06:45:17;;;;;;;6.68;5.70;;;16.00;99.90;;;;;;5035678;28;20136;-83
2022/08/09 06:47:44;;;;;;;8.95;5.82;;;16.20;99.90;;;;;;5035501;28;20125;-83
2022/08/09 06:50:10;;;;;;;5.57;4.93;;;16.70;99.90;;;;;;5019335;28;20076;-83
2022/08/09 06:52:38;;;;;;;6.93;4.82;;;17.20;99.90;;;;;;5020077;28;20120;-84
2022/08/09 06:55:05;;;;;;;7.28;4.95;;;17.80;99.90;;;;;;5020225;28;20103;-84
2022/08/09 06:57:31;;;;;;;6.80;4.45;;;18.30;99.90;;;;;;5035959;28;20524;-83
2022/08/09 06:59:57;;;;;;;7.30;4.18;;;18.70;99.90;;;;;;5020138;28;20049;-83
2022/08/09 07:02:23;;;;;;;5.07;3.92;;;19.10;99.90;;;;;;5019428;28;20050;-83
2022/08/09 07:04:49;;;;;;;4.93;3.80;;;19.50;99.90;;;;;;5003042;28;20050;-84
2022/08/09 07:07:14;;;;;;;5.25;3.35;;;19.80;99.90;;;;;;5035313;28;20073;-83
2022/08/09 07:09:41;;;;;;;5.07;3.60;;;20.00;99.90;;;;;;5019404;28;20041;-83
2022/08/09 07:12:07;;;;;;;3.97;2.70;;;20.10;99.90;;;;;;5019601;28;20037;-83
2022/08/09 07:14:32;;;;;;;5.68;3.05;;;20.30;99.90;;;;;;5035957;28;20382;-83
2022/08/09 07:16:58;;;;;;;4.65;2.72;;;20.50;99.90;;;;;;5018692;28;20037;-84
2022/08/09 07:19:24;;;;;;;4.22;2.50;;;20.70;99.90;;;;;;5018728;28;20105;-83
2022/08/09 07:21:50;;;;;;;4.90;2.20;;;20.90;99.90;;;;;;5035251;28;20042;-83
2022/08/09 07:24:16;;;;;;;3.47;2.30;;;21.00;99.90;;;;;;5036217;28;20060;-83
2022/08/09 07:26:42;;;;;;;3.78;2.20;;;21.20;99.90;;;;;;5019587;28;20041;-83
2022/08/09 07:29:08;;;;;;;3.92;1.90;;;21.30;99.90;;;;;;5035737;28;20537;-84
2022/08/09 07:31:34;;;;;;;3.70;1.70;;;21.40;99.90;;;;;;5018783;28;20044;-83
2022/08/09 07:33:59;;;;;;;2.42;1.60;;;21.50;99.90;;;;;;5033695;28;20041;-77
2022/08/09 07:36:26;;;;;;;4.88;1.90;;;21.60;99.90;;;;;;5000845;28;20091;-77
2022/08/09 07:38:53;;;;;;;2.95;1.73;;;21.70;99.90;;;;;;5017118;28;20048;-77
2022/08/09 07:41:19;;;;;;;3.42;1.40;;;21.80;99.90;;;;;;5001012;28;20485;-77
2022/08/09 07:43:45;;;;;;;3.20;1.40;;;21.80;99.90;;;;;;5016779;28;20067;-77
2022/08/09 07:46:11;;;;;;;2.17;1.70;;;21.80;99.90;;;;;;5033323;28;20049;-77
2022/08/09 07:48:36;;;;;;;2.33;1.35;;;21.90;99.90;;;;;;5016818;28;20048;-77
2022/08/09 07:51:02;;;;;;;2.75;1.70;;;22.00;99.90;;;;;;5001047;28;20033;-77
2022/08/09 07:53:28;;;;;;;2.25;1.30;;;22.10;99.90;;;;;;5001145;28;20127;-77
2022/08/09 07:55:54;;;;;;;2.67;1.40;;;22.20;99.90;;;;;;5016987;28;20472;-77
2022/08/09 07:58:19;;;;;;;2.42;1.40;;;22.30;99.90;;;;;;5000502;28;20397;-76
2022/08/09 08:00:45;;;;;;;2.35;1.60;;;22.30;99.90;;;;;;5017546;28;20067;-84
2022/08/09 08:03:11;;;;;;;2.95;1.33;;;22.20;99.90;;;;;;5035085;28;20041;-83
2022/08/09 08:05:36;;;;;;;4.57;1.38;;;22.10;99.90;;;;;;5017539;28;20482;-83
2022/08/09 08:08:02;;;;;;;3.13;1.25;;;22.10;99.90;;;;;;5017422;28;20048;-83
2022/08/09 08:10:29;;;;;;;2.55;1.50;;;22.20;99.90;;;;;;5035011;28;20044;-83
2022/08/09 08:12:55;;;;;;;3.28;1.48;;;22.20;99.90;;;;;;5036477;28;20394;-83
2022/08/09 08:15:20;;;;;;;3.17;1.33;;;22.20;99.90;;;;;;5036993;28;20107;-83
2022/08/09 08:17:50;;;;;;;4.45;1.83;;;22.10;99.90;;;;;;5019645;28;20067;-84
2022/08/09 08:20:17;;;;;;;5.07;2.10;;;22.20;99.90;;;;;;5019766;28;20476;-84
2022/08/09 08:22:43;;;;;;;3.15;1.25;;;22.20;99.90;;;;;;5033931;28;20144;-77
2022/08/09 08:25:10;;;;;;;1.83;1.23;;;22.20;99.90;;;;;;5016539;28;20193;-77
2022/08/09 08:27:35;;;;;;;2.88;1.15;;;22.20;99.90;;;;;;5016884;28;20068;-77
2022/08/09 08:30:02;;;;;;;1.92;1.20;;;22.30;99.90;;;;;;5016475;28;20042;-76
2022/08/09 08:32:29;;;;;;;3.20;1.40;;;22.30;99.90;;;;;;5000564;28;20048;-77
2022/08/09 08:34:56;;;;;;;2.10;0.85;;;22.30;99.90;;;;;;5016566;28;20124;-77
2022/08/09 08:37:21;;;;;;;2.90;1.17;;;22.30;99.90;;;;;;4999747;28;20092;-77
2022/08/09 08:39:47;;;;;;;2.72;1.10;;;22.30;99.90;;;;;;5016008;28;20080;-77
2022/08/09 08:42:13;;;;;;;2.65;1.10;;;22.20;99.90;;;;;;5032469;28;20498;-77
2022/08/09 08:44:41;;;;;;;1.98;1.05;;;22.20;99.90;;;;;;4999003;28;20092;-77
2022/08/09 08:47:08;;;;;;;4.70;1.23;;;22.30;99.90;;;;;;5015771;28;20424;-77
2022/08/09 08:49:37;;;;;;;1.63;0.90;;;22.20;99.90;;;;;;5016471;28;20037;-84
2022/08/09 08:52:04;;;;;;;2.38;1.23;;;22.20;99.90;;;;;;5034428;28;20044;-85
2022/08/09 08:54:30;;;;;;;5.07;1.30;;;22.20;99.90;;;;;;5017541;28;20397;-83
2022/08/09 08:56:56;;;;;;;2.35;1.00;;;22.20;99.90;;;;;;5034230;28;20051;-84
2022/08/09 08:59:21;;;;;;;3.03;1.30;;;22.10;99.90;;;;;;5034140;28;20132;-83
2022/08/09 09:01:50;;;;;;;1.40;0.82;;;22.00;99.90;;;;;;5034065;28;20059;-83
2022/08/09 09:04:17;;;;;;;1.27;1.00;;;22.00;99.90;;;;;;5033540;28;20095;-84
2022/08/09 09:06:47;;;;;;;2.55;1.15;;;22.10;99.90;;;;;;5033724;28;20375;-84
2022/08/09 09:09:14;;;;;;;2.30;1.20;;;22.10;99.90;;;;;;5033386;28;20046;-84
2022/08/09 09:11:41;;;;;;;1.77;0.90;;;22.10;99.90;;;;;;5017544;28;20502;-83
2022/08/09 09:14:16;;;;;;;2.08;0.90;;;22.20;99.90;;;;;;5017066;28;20050;-84
2022/08/09 09:16:42;;;;;;;1.42;0.95;;;22.20;99.90;;;;;;5017586;28;20516;-84
2022/08/09 09:19:10;;;;;;;2.88;1.30;;;22.20;99.90;;;;;;5017661;28;20139;-84
2022/08/09 09:21:53;;;;;;;1.92;1.05;;;22.40;99.90;;;;;;5017262;28;20038;-84
2022/08/09 09:24:21;;;;;;;2.22;1.00;;;22.40;99.90;;;;;;5033448;28;20393;-84
2022/08/09 09:26:54;;;;;;;1.58;0.98;;;22.40;99.90;;;;;;5033632;28;20037;-84
2022/08/09 09:29:31;;;;;;;2.97;0.90;;;22.30;99.90;;;;;;5033328;28;20045;-84
2022/08/09 09:31:58;;;;;;;1.77;0.90;;;22.30;99.90;;;;;;5033229;28;20077;-84
2022/08/09 09:34:24;;;;;;;6.72;1.00;;;22.20;99.90;;;;;;5017205;28;20111;-84
2022/08/09 09:36:50;;;;;;;2.70;1.13;;;22.30;99.90;;;;;;5017204;28;20078;-84
2022/08/09 09:39:17;;;;;;;1.45;0.95;;;22.30;99.90;;;;;;5017337;28;20076;-84
2022/08/09 09:41:44;;;;;;;2.63;0.93;;;22.20;99.90;;;;;;5017542;28;20065;-84
2022/08/09 09:44:10;;;;;;;1.95;0.93;;;22.10;99.90;;;;;;5017418;28;20094;-84
2022/08/09 09:46:37;;;;;;;2.42;0.90;;;22.10;99.90;;;;;;5001469;28;20096;-84
2022/08/09 09:49:05;;;;;;;1.52;0.80;;;22.10;99.90;;;;;;5033220;28;20045;-84
2022/08/09 09:51:33;;;;;;;1.48;0.98;;;22.10;99.90;;;;;;5033729;28;20042;-84
2022/08/09 09:54:04;;;;;;;4.22;1.15;;;22.10;99.90;;;;;;5016367;28;20049;-84
2022/08/09 09:56:35;;;;;;;2.95;1.00;;;22.10;99.90;;;;;;5034253;28;20045;-83
2022/08/09 09:59:01;;;;;;;3.08;1.00;;;22.20;99.90;;;;;;5021121;28;20547;-83
2022/08/09 10:01:29;;;;;;;4.10;0.95;;;22.20;99.90;;;;;;5019931;28;20092;-84
2022/08/09 10:03:55;;;;;;;1.38;0.75;;;22.30;99.90;;;;;;5036879;28;20486;-84
2022/08/09 10:06:20;;;;;;;1.63;0.90;;;22.30;99.90;;;;;;5037091;28;20041;-84
2022/08/09 10:08:48;;;;;;;1.48;0.82;;;22.30;99.90;;;;;;5021241;28;20033;-84
2022/08/09 10:11:26;;;;;;;3.03;1.02;;;22.30;99.90;;;;;;5037413;28;20103;-84
2022/08/09 10:13:52;;;;;;;2.40;0.90;;;22.30;99.90;;;;;;5021078;28;20453;-84
2022/08/09 10:16:31;;;;;;;2.63;1.10;;;22.20;99.90;;;;;;5036994;28;20056;-84
2022/08/09 10:19:02;;;;;;;1.35;0.93;;;22.20;99.90;;;;;;5037462;28;20041;-83
2022/08/09 10:21:29;;;;;;;1.73;0.90;;;22.20;99.90;;;;;;5036835;28;20842;-84
2022/08/09 10:23:56;;;;;;;1.15;0.90;;;22.20;99.90;;;;;;5020660;28;20053;-84
2022/08/09 10:26:23;;;;;;;2.08;1.00;;;22.30;99.90;;;;;;5036335;28;20044;-85
2022/08/09 10:28:50;;;;;;;2.42;1.17;;;22.40;99.90;;;;;;5036337;28;20571;-84
2022/08/09 10:31:16;;;;;;;2.65;0.80;;;22.40;99.90;;;;;;5036537;28;20386;-84
2022/08/09 10:33:42;;;;;;;1.10;0.95;;;22.50;99.90;;;;;;5036211;28;20135;-84
2022/08/09 10:36:10;;;;;;;1.65;0.80;;;22.40;99.90;;;;;;5019494;28;20052;-84
2022/08/09 10:38:37;;;;;;;5.85;1.20;;;22.40;99.90;;;;;;5003139;28;20085;-84
2022/08/09 10:41:03;;;;;;;1.25;0.80;;;22.30;99.90;;;;;;5037384;28;20077;-84
2022/08/09 10:43:29;;;;;;;2.35;0.90;;;22.30;99.90;;;;;;5019513;28;20077;-84
2022/08/09 10:46:00;;;;;;;1.25;0.82;;;22.30;99.90;;;;;;5036297;28;20131;-84
2022/08/09 10:48:43;;;;;;;1.38;0.90;;;22.40;99.90;;;;;;5036347;28;20045;-84
2022/08/09 10:51:20;;;;;;;8.23;1.02;;;22.50;99.90;;;;;;5036199;28;20429;-84
2022/08/09 10:53:56;;;;;;;2.05;1.02;;;22.50;99.90;;;;;;5036056;28;20456;-84
2022/08/09 10:56:24;;;;;;;1.05;0.80;;;22.60;99.90;;;;;;5036170;28;20045;-84
2022/08/09 10:58:52;;;;;;;1.45;0.70;;;22.60;99.90;;;;;;5036056;28;20048;-84
2022/08/09 11:01:34;;;;;;;1.90;0.80;;;22.60;99.90;;;;;;5036590;28;20132;-84
2022/08/09 11:04:08;;;;;;;1.75;0.80;;;22.70;99.90;;;;;;5037066;28;20041;-84
2022/08/09 11:06:36;;;;;;;1.27;0.80;;;22.70;99.60;;;;;;5036607;28;20048;-84
2022/08/09 11:09:03;;;;;;;1.40;0.80;;;22.70;99.60;;;;;;5037034;28;20044;-84
2022/08/09 11:11:51;;;;;;;0.98;0.70;;;22.70;99.70;;;;;;5019493;28;20044;-84
2022/08/09 11:14:43;;;;;;;1.80;0.80;;;22.70;99.60;;;;;;5035417;28;20076;-84
2022/08/09 11:17:12;;;;;;;1.52;0.95;;;22.70;99.70;;;;;;5019104;28;20071;-84
2022/08/09 11:20:08;;;;;;;2.63;0.90;;;22.80;99.90;;;;;;5019150;28;20049;-84
2022/08/09 11:22:39;;;;;;;1.45;1.13;;;22.90;99.90;;;;;;5018866;28;20398;-84
2022/08/09 11:25:15;;;;;;;1.58;0.80;;;22.90;99.40;;;;;;5035207;28;20041;-84
2022/08/09 11:27:42;;;;;;;1.83;0.80;;;23.00;99.30;;;;;;5002770;28;20130;-84
2022/08/09 11:30:35;;;;;;;1.27;0.70;;;23.00;99.40;;;;;;5018462;28;20048;-83
2022/08/09 11:33:04;;;;;;;1.55;0.93;;;23.00;99.20;;;;;;5032096;28;20123;-84
2022/08/09 11:35:38;;;;;;;0.63;0.60;;;23.00;99.30;;;;;;5034683;28;20107;-84
2022/08/09 11:38:14;;;;;;;0.60;0.60;;;23.00;98.60;;;;;;5033985;28;20555;-84
2022/08/09 11:40:40;;;;;;;1.38;0.50;;;23.10;98.50;;;;;;5034346;28;20048;-85
2022/08/09 11:43:06;;;;;;;0.88;0.60;;;23.10;98.10;;;;;;5017862;28;20049;-84
2022/08/09 11:45:41;;;;;;;1.25;0.90;;;23.10;98.20;;;;;;5034785;28;20126;-84
2022/08/09 11:48:10;;;;;;;0.98;0.80;;;23.10;98.30;;;;;;5003179;28;20045;-84
2022/08/09 11:50:58;;;;;;;1.88;1.08;;;23.10;98.20;;;;;;5035977;28;20068;-84
2022/08/09 11:53:28;;;;;;;1.75;0.82;;;23.20;97.40;;;;;;5022092;28;20095;-84
2022/08/09 11:56:19;;;;;;;1.05;0.75;;;23.20;97.90;;;;;;5023475;28;20041;-84
2022/08/09 11:58:59;;;;;;;5.72;1.10;;;23.30;98.00;;;;;;5018957;28;20053;-84
2022/08/09 12:01:34;;;;;;;0.82;0.80;;;23.40;98.00;;;;;;5035338;28;20042;-84
2022/08/09 12:04:02;;;;;;;;;;;23.50;98.20;;;;;;5018833;28;20048;-84
2022/08/09 12:06:29;;;;;;;2.15;0.70;;;23.50;98.30;;;;;;5018016;28;19999;-84
2022/08/09 12:08:55;;;;;;;0.98;0.80;;;23.50;97.90;;;;;;5035680;28;20050;-83
2022/08/09 12:11:25;;;;;;;1.25;0.60;;;23.60;97.40;;;;;;5035973;28;20045;-84
2022/08/09 12:13:54;;;;;;;1.45;0.90;;;23.50;97.40;;;;;;5036607;28;20050;-83
2022/08/09 12:16:22;;;;;;;0.93;0.70;;;23.60;97.50;;;;;;5019543;28;20059;-83
2022/08/09 12:18:50;;;;;;;2.97;0.80;;;23.80;97.00;;;;;;5035212;28;20107;-84
2022/08/09 12:21:25;;;;;;;1.70;0.70;;;23.80;97.20;;;;;;5019622;28;20045;-83
2022/08/09 12:23:52;;;;;;;5.70;1.35;;;23.80;97.20;;;;;;5035451;28;20494;-84
2022/08/09 12:26:20;;;;;;;1.40;0.70;;;23.80;97.00;;;;;;5034741;28;20049;-84
2022/08/09 12:28:51;;;;;;;1.08;0.80;;;23.90;96.40;;;;;;5018459;28;20037;-84
2022/08/09 12:31:27;;;;;;;1.45;0.70;;;24.00;96.80;;;;;;5035706;28;20386;-83
2022/08/09 12:33:54;;;;;;;1.23;0.70;;;24.00;96.80;;;;;;5034938;28;20084;-83
2022/08/09 12:36:22;;;;;;;0.65;0.60;;;24.00;96.90;;;;;;5034255;28;20504;-84
2022/08/09 12:38:49;;;;;;;1.52;0.85;;;24.10;96.30;;;;;;5033659;28;20045;-84
2022/08/09 12:41:22;;;;;;;1.40;0.80;;;24.10;95.60;;;;;;5033479;28;20056;-84
2022/08/09 12:43:49;;;;;;;1.30;0.77;;;24.10;95.60;;;;;;5033870;28;20057;-84
2022/08/09 12:46:16;;;;;;;2.00;0.80;;;24.20;95.50;;;;;;5034231;28;20160;-84
2022/08/09 12:48:42;;;;;;;3.45;0.70;;;24.30;95.00;;;;;;5034436;28;20045;-84
2022/08/09 12:51:07;;;;;;;1.17;0.57;;;24.40;95.00;;;;;;5034003;28;20474;-84